sensor_id;sensor_type;location;lat;lon;timestamp;P1;durP1;ratioP1;P2;durP2;ratioP2
31238;SDS011;17871;31.584;74.450;2023-03-03T00:02:22;47.75;;;23.42;;
31238;SDS011;17871;31.584;74.450;2023-03-03T00:04:51;45.05;;;21.98;;
31238;SDS011;17871;31.584;74.450;2023-03-03T00:07:20;44.63;;;21.98;;
31238;SDS011;17871;31.584;74.450;2023-03-03T00:09:50;55.20;;;22.02;;
31238;SDS011;17871;31.584;74.450;2023-03-03T00:12:27;65.95;;;24.63;;
31238;SDS011;17871;31.584;74.450;2023-03-03T00:14:58;77.57;;;33.13;;
31238;SDS011;17871;31.584;74.450;2023-03-03T00:17:28;81.53;;;35.40;;
31238;SDS011;17871;31.584;74.450;2023-03-03T00:19:59;66.35;;;31.52;;
31238;SDS011;17871;31.584;74.450;2023-03-03T00:22:49;67.10;;;31.63;;
31238;SDS011;17871;31.584;74.450;2023-03-03T00:25:29;65.13;;;29.05;;
31238;SDS011;17871;31.584;74.450;2023-03-03T00:30:57;50.45;;;27.83;;
31238;SDS011;17871;31.584;74.450;2023-03-03T00:36:45;75.57;;;33.10;;
31238;SDS011;17871;31.584;74.450;2023-03-03T00:39:17;70.40;;;32.33;;
31238;SDS011;17871;31.584;74.450;2023-03-03T00:41:53;81.30;;;36.75;;
31238;SDS011;17871;31.584;74.450;2023-03-03T00:52:35;76.13;;;37.97;;
31238;SDS011;17871;31.584;74.450;2023-03-03T00:55:06;79.50;;;36.45;;
31238;SDS011;17871;31.584;74.450;2023-03-03T00:57:35;89.68;;;38.20;;
31238;SDS011;17871;31.584;74.450;2023-03-03T01:00:06;91.82;;;40.50;;
31238;SDS011;17871;31.584;74.450;2023-03-03T01:02:39;127.40;;;54.47;;
31238;SDS011;17871;31.584;74.450;2023-03-03T01:05:16;109.95;;;51.05;;
31238;SDS011;17871;31.584;74.450;2023-03-03T01:07:48;118.90;;;48.63;;
31238;SDS011;17871;31.584;74.450;2023-03-03T01:10:19;107.75;;;45.95;;
31238;SDS011;17871;31.584;74.450;2023-03-03T01:12:49;97.97;;;43.10;;
31238;SDS011;17871;31.584;74.450;2023-03-03T01:15:18;86.25;;;42.33;;
31238;SDS011;17871;31.584;74.450;2023-03-03T01:17:50;101.20;;;41.83;;
31238;SDS011;17871;31.584;74.450;2023-03-03T01:20:20;93.03;;;43.25;;
31238;SDS011;17871;31.584;74.450;2023-03-03T01:22:51;103.80;;;41.08;;
31238;SDS011;17871;31.584;74.450;2023-03-03T01:25:20;86.95;;;40.08;;
31238;SDS011;17871;31.584;74.450;2023-03-03T01:27:50;81.43;;;37.20;;
31238;SDS011;17871;31.584;74.450;2023-03-03T01:30:19;85.10;;;39.65;;
31238;SDS011;17871;31.584;74.450;2023-03-03T01:32:49;87.88;;;39.30;;
31238;SDS011;17871;31.584;74.450;2023-03-03T01:35:18;85.38;;;41.33;;
31238;SDS011;17871;31.584;74.450;2023-03-03T01:37:49;108.68;;;46.33;;
31238;SDS011;17871;31.584;74.450;2023-03-03T01:40:22;106.43;;;46.25;;
31238;SDS011;17871;31.584;74.450;2023-03-03T01:42:53;105.85;;;47.40;;
31238;SDS011;17871;31.584;74.450;2023-03-03T01:45:25;103.00;;;45.33;;
31238;SDS011;17871;31.584;74.450;2023-03-03T01:48:09;118.10;;;51.40;;
31238;SDS011;17871;31.584;74.450;2023-03-03T01:53:36;121.60;;;52.00;;
31238;SDS011;17871;31.584;74.450;2023-03-03T01:56:11;112.75;;;44.88;;
31238;SDS011;17871;31.584;74.450;2023-03-03T01:58:50;104.07;;;40.87;;
31238;SDS011;17871;31.584;74.450;2023-03-03T02:01:27;103.75;;;41.83;;
31238;SDS011;17871;31.584;74.450;2023-03-03T02:03:58;113.17;;;44.30;;
31238;SDS011;17871;31.584;74.450;2023-03-03T02:06:30;104.85;;;43.67;;
31238;SDS011;17871;31.584;74.450;2023-03-03T02:11:56;110.88;;;45.65;;
31238;SDS011;17871;31.584;74.450;2023-03-03T02:14:29;99.03;;;45.58;;
31238;SDS011;17871;31.584;74.450;2023-03-03T02:16:58;131.75;;;51.30;;
31238;SDS011;17871;31.584;74.450;2023-03-03T02:22:09;130.52;;;49.30;;
31238;SDS011;17871;31.584;74.450;2023-03-03T02:24:45;119.83;;;48.63;;
31238;SDS011;17871;31.584;74.450;2023-03-03T02:27:25;112.47;;;44.72;;
31238;SDS011;17871;31.584;74.450;2023-03-03T02:30:16;103.63;;;40.70;;
31238;SDS011;17871;31.584;74.450;2023-03-03T02:32:48;97.40;;;36.78;;
31238;SDS011;17871;31.584;74.450;2023-03-03T02:35:24;79.25;;;30.92;;
31238;SDS011;17871;31.584;74.450;2023-03-03T02:38:31;91.95;;;36.58;;
31238;SDS011;17871;31.584;74.450;2023-03-03T02:41:27;75.47;;;30.50;;
31238;SDS011;17871;31.584;74.450;2023-03-03T02:46:33;69.05;;;29.90;;
31238;SDS011;17871;31.584;74.450;2023-03-03T02:49:05;82.65;;;33.50;;
31238;SDS011;17871;31.584;74.450;2023-03-03T02:51:37;87.30;;;31.05;;
31238;SDS011;17871;31.584;74.450;2023-03-03T02:54:08;71.60;;;29.38;;
31238;SDS011;17871;31.584;74.450;2023-03-03T02:56:40;88.88;;;35.78;;
31238;SDS011;17871;31.584;74.450;2023-03-03T02:59:10;90.38;;;35.70;;
31238;SDS011;17871;31.584;74.450;2023-03-03T03:01:45;86.15;;;37.50;;
31238;SDS011;17871;31.584;74.450;2023-03-03T03:04:18;104.32;;;41.13;;
31238;SDS011;17871;31.584;74.450;2023-03-03T03:06:50;91.95;;;38.95;;
31238;SDS011;17871;31.584;74.450;2023-03-03T03:09:22;116.78;;;44.20;;
31238;SDS011;17871;31.584;74.450;2023-03-03T03:11:54;81.93;;;39.88;;
31238;SDS011;17871;31.584;74.450;2023-03-03T03:14:25;101.65;;;41.78;;
31238;SDS011;17871;31.584;74.450;2023-03-03T03:16:56;108.55;;;42.78;;
31238;SDS011;17871;31.584;74.450;2023-03-03T03:19:26;105.35;;;42.40;;
31238;SDS011;17871;31.584;74.450;2023-03-03T03:22:00;107.68;;;41.15;;
31238;SDS011;17871;31.584;74.450;2023-03-03T03:24:32;100.90;;;43.67;;
31238;SDS011;17871;31.584;74.450;2023-03-03T03:27:05;95.30;;;43.28;;
31238;SDS011;17871;31.584;74.450;2023-03-03T03:29:36;113.72;;;41.20;;
31238;SDS011;17871;31.584;74.450;2023-03-03T03:32:06;117.88;;;42.25;;
31238;SDS011;17871;31.584;74.450;2023-03-03T03:34:36;111.18;;;44.03;;
31238;SDS011;17871;31.584;74.450;2023-03-03T03:37:07;116.35;;;46.15;;
31238;SDS011;17871;31.584;74.450;2023-03-03T03:39:37;98.20;;;43.88;;
31238;SDS011;17871;31.584;74.450;2023-03-03T03:42:07;128.32;;;45.78;;
31238;SDS011;17871;31.584;74.450;2023-03-03T03:44:37;107.15;;;47.05;;
31238;SDS011;17871;31.584;74.450;2023-03-03T03:47:06;103.85;;;45.53;;
31238;SDS011;17871;31.584;74.450;2023-03-03T03:49:35;100.22;;;41.05;;
31238;SDS011;17871;31.584;74.450;2023-03-03T03:52:05;94.07;;;42.78;;
31238;SDS011;17871;31.584;74.450;2023-03-03T03:54:34;101.07;;;42.30;;
31238;SDS011;17871;31.584;74.450;2023-03-03T03:57:03;117.68;;;42.35;;
31238;SDS011;17871;31.584;74.450;2023-03-03T03:59:33;91.10;;;40.88;;
31238;SDS011;17871;31.584;74.450;2023-03-03T04:02:02;104.15;;;48.75;;
31238;SDS011;17871;31.584;74.450;2023-03-03T04:04:31;104.75;;;45.90;;
31238;SDS011;17871;31.584;74.450;2023-03-03T04:07:01;102.75;;;48.03;;
31238;SDS011;17871;31.584;74.450;2023-03-03T04:09:30;99.88;;;45.38;;
31238;SDS011;17871;31.584;74.450;2023-03-03T04:11:59;104.28;;;43.75;;
31238;SDS011;17871;31.584;74.450;2023-03-03T04:14:29;108.60;;;47.53;;
31238;SDS011;17871;31.584;74.450;2023-03-03T04:16:59;104.22;;;42.97;;
31238;SDS011;17871;31.584;74.450;2023-03-03T04:19:29;104.65;;;42.03;;
31238;SDS011;17871;31.584;74.450;2023-03-03T04:21:58;83.20;;;39.45;;
31238;SDS011;17871;31.584;74.450;2023-03-03T04:24:29;82.68;;;35.00;;
31238;SDS011;17871;31.584;74.450;2023-03-03T04:26:58;102.43;;;41.03;;
31238;SDS011;17871;31.584;74.450;2023-03-03T04:29:28;105.07;;;45.50;;
31238;SDS011;17871;31.584;74.450;2023-03-03T04:31:58;89.95;;;41.20;;
31238;SDS011;17871;31.584;74.450;2023-03-03T04:34:27;105.50;;;39.15;;
31238;SDS011;17871;31.584;74.450;2023-03-03T04:36:57;96.05;;;42.85;;
31238;SDS011;17871;31.584;74.450;2023-03-03T04:39:26;129.90;;;48.35;;
31238;SDS011;17871;31.584;74.450;2023-03-03T04:41:57;81.97;;;40.40;;
31238;SDS011;17871;31.584;74.450;2023-03-03T04:44:27;89.32;;;38.42;;
31238;SDS011;17871;31.584;74.450;2023-03-03T04:46:55;78.28;;;34.42;;
31238;SDS011;17871;31.584;74.450;2023-03-03T04:49:24;74.65;;;31.60;;
31238;SDS011;17871;31.584;74.450;2023-03-03T04:51:54;76.68;;;34.45;;
31238;SDS011;17871;31.584;74.450;2023-03-03T04:54:23;96.10;;;39.10;;
31238;SDS011;17871;31.584;74.450;2023-03-03T04:56:52;93.68;;;36.72;;
31238;SDS011;17871;31.584;74.450;2023-03-03T04:59:21;68.70;;;30.98;;
31238;SDS011;17871;31.584;74.450;2023-03-03T05:01:50;71.68;;;31.90;;
31238;SDS011;17871;31.584;74.450;2023-03-03T05:04:19;61.72;;;28.95;;
31238;SDS011;17871;31.584;74.450;2023-03-03T05:06:49;73.57;;;31.40;;
31238;SDS011;17871;31.584;74.450;2023-03-03T05:09:17;68.32;;;30.20;;
31238;SDS011;17871;31.584;74.450;2023-03-03T05:11:46;89.53;;;34.90;;
31238;SDS011;17871;31.584;74.450;2023-03-03T05:14:15;87.13;;;36.95;;
31238;SDS011;17871;31.584;74.450;2023-03-03T05:16:44;82.60;;;35.38;;
31238;SDS011;17871;31.584;74.450;2023-03-03T05:19:13;79.32;;;33.28;;
31238;SDS011;17871;31.584;74.450;2023-03-03T05:21:42;80.68;;;34.78;;
31238;SDS011;17871;31.584;74.450;2023-03-03T05:24:12;60.63;;;25.80;;
31238;SDS011;17871;31.584;74.450;2023-03-03T05:26:41;50.53;;;21.88;;
31238;SDS011;17871;31.584;74.450;2023-03-03T05:29:10;69.60;;;26.15;;
31238;SDS011;17871;31.584;74.450;2023-03-03T05:31:39;51.97;;;22.70;;
31238;SDS011;17871;31.584;74.450;2023-03-03T05:34:11;66.18;;;27.48;;
31238;SDS011;17871;31.584;74.450;2023-03-03T05:36:40;65.93;;;26.02;;
31238;SDS011;17871;31.584;74.450;2023-03-03T05:39:09;67.93;;;29.42;;
31238;SDS011;17871;31.584;74.450;2023-03-03T05:41:37;68.72;;;27.30;;
31238;SDS011;17871;31.584;74.450;2023-03-03T05:44:07;40.50;;;18.92;;
31238;SDS011;17871;31.584;74.450;2023-03-03T05:46:36;56.85;;;21.85;;
31238;SDS011;17871;31.584;74.450;2023-03-03T05:49:05;43.42;;;18.48;;
31238;SDS011;17871;31.584;74.450;2023-03-03T05:51:34;47.10;;;18.55;;
31238;SDS011;17871;31.584;74.450;2023-03-03T05:54:03;35.95;;;15.38;;
31238;SDS011;17871;31.584;74.450;2023-03-03T05:56:32;46.42;;;16.42;;
31238;SDS011;17871;31.584;74.450;2023-03-03T05:59:01;42.45;;;14.25;;
31238;SDS011;17871;31.584;74.450;2023-03-03T06:01:30;27.17;;;13.93;;
31238;SDS011;17871;31.584;74.450;2023-03-03T06:04:00;39.88;;;19.33;;
31238;SDS011;17871;31.584;74.450;2023-03-03T06:06:28;45.97;;;14.98;;
31238;SDS011;17871;31.584;74.450;2023-03-03T06:11:30;37.28;;;15.40;;
31238;SDS011;17871;31.584;74.450;2023-03-03T06:13:59;43.10;;;17.90;;
31238;SDS011;17871;31.584;74.450;2023-03-03T06:16:28;38.05;;;14.80;;
31238;SDS011;17871;31.584;74.450;2023-03-03T06:18:57;30.63;;;12.30;;
31238;SDS011;17871;31.584;74.450;2023-03-03T06:21:26;32.35;;;15.55;;
31238;SDS011;17871;31.584;74.450;2023-03-03T06:23:55;33.47;;;12.15;;
31238;SDS011;17871;31.584;74.450;2023-03-03T06:26:24;37.25;;;15.70;;
31238;SDS011;17871;31.584;74.450;2023-03-03T06:28:52;42.72;;;14.20;;
31238;SDS011;17871;31.584;74.450;2023-03-03T06:31:22;28.02;;;12.07;;
31238;SDS011;17871;31.584;74.450;2023-03-03T06:33:52;26.80;;;12.00;;
31238;SDS011;17871;31.584;74.450;2023-03-03T06:36:21;23.38;;;11.32;;
31238;SDS011;17871;31.584;74.450;2023-03-03T06:38:51;29.25;;;13.07;;
31238;SDS011;17871;31.584;74.450;2023-03-03T06:41:20;27.00;;;11.18;;
31238;SDS011;17871;31.584;74.450;2023-03-03T06:43:49;21.67;;;10.88;;
31238;SDS011;17871;31.584;74.450;2023-03-03T06:46:18;26.40;;;10.68;;
31238;SDS011;17871;31.584;74.450;2023-03-03T06:48:47;22.20;;;8.25;;
31238;SDS011;17871;31.584;74.450;2023-03-03T06:51:21;22.83;;;9.63;;
31238;SDS011;17871;31.584;74.450;2023-03-03T06:53:51;21.55;;;10.55;;
31238;SDS011;17871;31.584;74.450;2023-03-03T06:56:27;32.85;;;13.52;;
31238;SDS011;17871;31.584;74.450;2023-03-03T06:58:58;39.72;;;15.98;;
31238;SDS011;17871;31.584;74.450;2023-03-03T07:01:31;37.30;;;12.23;;
31238;SDS011;17871;31.584;74.450;2023-03-03T07:04:50;40.88;;;13.60;;
31238;SDS011;17871;31.584;74.450;2023-03-03T07:09:48;30.35;;;14.52;;
31238;SDS011;17871;31.584;74.450;2023-03-03T07:12:25;27.02;;;10.80;;
31238;SDS011;17871;31.584;74.450;2023-03-03T07:17:48;20.95;;;7.95;;
31238;SDS011;17871;31.584;74.450;2023-03-03T07:20:21;23.60;;;7.72;;
31238;SDS011;17871;31.584;74.450;2023-03-03T07:22:56;22.05;;;7.60;;
31238;SDS011;17871;31.584;74.450;2023-03-03T07:25:29;29.63;;;9.77;;
31238;SDS011;17871;31.584;74.450;2023-03-03T07:28:16;27.67;;;14.38;;
31238;SDS011;17871;31.584;74.450;2023-03-03T07:30:47;32.83;;;9.00;;
31238;SDS011;17871;31.584;74.450;2023-03-03T07:33:40;37.17;;;8.70;;
31238;SDS011;17871;31.584;74.450;2023-03-03T07:36:27;12.88;;;5.90;;
31238;SDS011;17871;31.584;74.450;2023-03-03T07:39:10;13.30;;;6.82;;
31238;SDS011;17871;31.584;74.450;2023-03-03T07:42:24;21.45;;;6.63;;
31238;SDS011;17871;31.584;74.450;2023-03-03T07:45:27;25.70;;;6.03;;
31238;SDS011;17871;31.584;74.450;2023-03-03T07:51:02;11.00;;;5.43;;
31238;SDS011;17871;31.584;74.450;2023-03-03T07:53:39;23.08;;;7.57;;
31238;SDS011;17871;31.584;74.450;2023-03-03T07:56:14;19.13;;;7.80;;
31238;SDS011;17871;31.584;74.450;2023-03-03T07:58:49;10.57;;;5.70;;
31238;SDS011;17871;31.584;74.450;2023-03-03T08:01:23;14.68;;;5.07;;
31238;SDS011;17871;31.584;74.450;2023-03-03T08:04:04;15.27;;;6.53;;
31238;SDS011;17871;31.584;74.450;2023-03-03T08:06:41;18.95;;;7.40;;
31238;SDS011;17871;31.584;74.450;2023-03-03T08:11:59;24.92;;;4.82;;
31238;SDS011;17871;31.584;74.450;2023-03-03T08:14:37;14.98;;;5.15;;
31238;SDS011;17871;31.584;74.450;2023-03-03T08:17:22;16.88;;;5.20;;
31238;SDS011;17871;31.584;74.450;2023-03-03T08:19:53;24.13;;;6.63;;
31238;SDS011;17871;31.584;74.450;2023-03-03T08:24:58;15.98;;;6.78;;
31238;SDS011;17871;31.584;74.450;2023-03-03T08:27:26;22.77;;;6.35;;
31238;SDS011;17871;31.584;74.450;2023-03-03T08:29:55;16.42;;;5.78;;
31238;SDS011;17871;31.584;74.450;2023-03-03T08:32:24;28.35;;;5.88;;
31238;SDS011;17871;31.584;74.450;2023-03-03T08:34:53;19.75;;;6.13;;
31238;SDS011;17871;31.584;74.450;2023-03-03T08:37:22;22.80;;;6.00;;
31238;SDS011;17871;31.584;74.450;2023-03-03T08:39:51;23.70;;;5.97;;
31238;SDS011;17871;31.584;74.450;2023-03-03T08:42:20;17.73;;;6.65;;
31238;SDS011;17871;31.584;74.450;2023-03-03T08:44:49;12.10;;;4.57;;
31238;SDS011;17871;31.584;74.450;2023-03-03T08:47:17;14.45;;;5.97;;
31238;SDS011;17871;31.584;74.450;2023-03-03T08:49:46;14.85;;;6.00;;
31238;SDS011;17871;31.584;74.450;2023-03-03T08:52:15;18.00;;;6.15;;
31238;SDS011;17871;31.584;74.450;2023-03-03T08:54:44;30.30;;;6.45;;
31238;SDS011;17871;31.584;74.450;2023-03-03T08:57:13;17.20;;;6.22;;
31238;SDS011;17871;31.584;74.450;2023-03-03T08:59:42;16.20;;;6.68;;
31238;SDS011;17871;31.584;74.450;2023-03-03T09:02:12;15.00;;;6.03;;
31238;SDS011;17871;31.584;74.450;2023-03-03T09:04:41;21.70;;;7.15;;
31238;SDS011;17871;31.584;74.450;2023-03-03T09:07:10;17.98;;;6.05;;
31238;SDS011;17871;31.584;74.450;2023-03-03T09:09:39;13.55;;;5.13;;
31238;SDS011;17871;31.584;74.450;2023-03-03T09:12:18;13.93;;;5.05;;
31238;SDS011;17871;31.584;74.450;2023-03-03T09:17:49;23.15;;;8.05;;
31238;SDS011;17871;31.584;74.450;2023-03-03T09:23:24;13.50;;;4.78;;
31238;SDS011;17871;31.584;74.450;2023-03-03T09:25:51;14.20;;;5.60;;
31238;SDS011;17871;31.584;74.450;2023-03-03T09:30:53;10.80;;;4.30;;
31238;SDS011;17871;31.584;74.450;2023-03-03T09:33:27;17.30;;;7.07;;
31238;SDS011;17871;31.584;74.450;2023-03-03T09:38:51;18.30;;;6.50;;
31238;SDS011;17871;31.584;74.450;2023-03-03T09:53:13;23.98;;;6.32;;
31238;SDS011;17871;31.584;74.450;2023-03-03T10:04:59;17.00;;;7.63;;
31238;SDS011;17871;31.584;74.450;2023-03-03T10:25:20;29.55;;;9.93;;
31238;SDS011;17871;31.584;74.450;2023-03-03T10:36:23;26.70;;;8.48;;
31238;SDS011;17871;31.584;74.450;2023-03-03T10:47:55;24.85;;;7.32;;
31238;SDS011;17871;31.584;74.450;2023-03-03T10:50:43;28.75;;;9.95;;
31238;SDS011;17871;31.584;74.450;2023-03-03T10:56:07;22.45;;;8.35;;
31238;SDS011;17871;31.584;74.450;2023-03-03T11:02:00;34.25;;;11.27;;
31238;SDS011;17871;31.584;74.450;2023-03-03T11:13:14;21.45;;;10.73;;
31238;SDS011;17871;31.584;74.450;2023-03-03T11:27:21;25.08;;;10.55;;
31238;SDS011;17871;31.584;74.450;2023-03-03T11:36:23;30.92;;;10.23;;
31238;SDS011;17871;31.584;74.450;2023-03-03T11:39:10;16.10;;;8.20;;
31238;SDS011;17871;31.584;74.450;2023-03-03T11:41:57;29.70;;;9.27;;
31238;SDS011;17871;31.584;74.450;2023-03-03T11:44:32;19.73;;;9.65;;
31238;SDS011;17871;31.584;74.450;2023-03-03T11:50:04;24.88;;;9.57;;
31238;SDS011;17871;31.584;74.450;2023-03-03T11:52:46;35.45;;;11.40;;
31238;SDS011;17871;31.584;74.450;2023-03-03T12:00:56;84.93;;;10.00;;
31238;SDS011;17871;31.584;74.450;2023-03-03T12:06:20;40.92;;;12.52;;
31238;SDS011;17871;31.584;74.450;2023-03-03T12:09:26;25.13;;;9.90;;
31238;SDS011;17871;31.584;74.450;2023-03-03T12:12:13;34.13;;;11.47;;
31238;SDS011;17871;31.584;74.450;2023-03-03T12:17:43;56.42;;;15.73;;
31238;SDS011;17871;31.584;74.450;2023-03-03T12:20:21;27.25;;;9.77;;
31238;SDS011;17871;31.584;74.450;2023-03-03T12:26:06;43.47;;;11.55;;
31238;SDS011;17871;31.584;74.450;2023-03-03T12:32:02;33.05;;;13.02;;
31238;SDS011;17871;31.584;74.450;2023-03-03T12:37:54;44.00;;;14.35;;
31238;SDS011;17871;31.584;74.450;2023-03-03T12:48:54;29.45;;;11.07;;
31238;SDS011;17871;31.584;74.450;2023-03-03T12:54:38;20.95;;;7.95;;
31238;SDS011;17871;31.584;74.450;2023-03-03T12:56:54;17.38;;;6.78;;
31238;SDS011;17871;31.584;74.450;2023-03-03T13:05:01;34.83;;;10.45;;
31238;SDS011;17871;31.584;74.450;2023-03-03T13:13:23;41.45;;;18.50;;
31238;SDS011;17871;31.584;74.450;2023-03-03T13:16:01;30.85;;;14.13;;
31238;SDS011;17871;31.584;74.450;2023-03-03T13:18:48;42.85;;;14.77;;
31238;SDS011;17871;31.584;74.450;2023-03-03T13:26:49;43.08;;;18.05;;
31238;SDS011;17871;31.584;74.450;2023-03-03T13:32:07;41.25;;;18.27;;
31238;SDS011;17871;31.584;74.450;2023-03-03T13:42:46;52.28;;;20.02;;
31238;SDS011;17871;31.584;74.450;2023-03-03T13:45:34;60.80;;;24.27;;
31238;SDS011;17871;31.584;74.450;2023-03-03T13:50:57;69.68;;;29.08;;
31238;SDS011;17871;31.584;74.450;2023-03-03T13:59:27;67.35;;;28.35;;
31238;SDS011;17871;31.584;74.450;2023-03-03T14:05:35;69.57;;;25.88;;
31238;SDS011;17871;31.584;74.450;2023-03-03T14:10:41;50.97;;;20.38;;
31238;SDS011;17871;31.584;74.450;2023-03-03T14:13:28;50.70;;;20.05;;
31238;SDS011;17871;31.584;74.450;2023-03-03T14:21:26;39.50;;;17.67;;
31238;SDS011;17871;31.584;74.450;2023-03-03T14:26:51;76.10;;;26.08;;
31238;SDS011;17871;31.584;74.450;2023-03-03T14:29:29;94.45;;;33.08;;
31238;SDS011;17871;31.584;74.450;2023-03-03T14:32:01;80.93;;;26.60;;
31238;SDS011;17871;31.584;74.450;2023-03-03T14:34:55;89.75;;;28.92;;
31238;SDS011;17871;31.584;74.450;2023-03-03T14:37:27;98.68;;;29.58;;
31238;SDS011;17871;31.584;74.450;2023-03-03T14:40:20;71.22;;;28.40;;
31238;SDS011;17871;31.584;74.450;2023-03-03T14:42:58;87.00;;;32.03;;
31238;SDS011;17871;31.584;74.450;2023-03-03T14:50:59;122.80;;;44.70;;
31238;SDS011;17871;31.584;74.450;2023-03-03T14:54:00;114.72;;;45.03;;
31238;SDS011;17871;31.584;74.450;2023-03-03T14:56:36;127.75;;;43.95;;
31238;SDS011;17871;31.584;74.450;2023-03-03T14:59:18;98.22;;;38.72;;
31238;SDS011;17871;31.584;74.450;2023-03-03T15:02:02;114.57;;;39.10;;
31238;SDS011;17871;31.584;74.450;2023-03-03T15:04:46;91.40;;;34.90;;
31238;SDS011;17871;31.584;74.450;2023-03-03T15:10:05;97.25;;;37.05;;
31238;SDS011;17871;31.584;74.450;2023-03-03T15:12:36;133.98;;;45.92;;
31238;SDS011;17871;31.584;74.450;2023-03-03T15:15:21;134.35;;;48.35;;
31238;SDS011;17871;31.584;74.450;2023-03-03T15:17:55;145.90;;;55.10;;
31238;SDS011;17871;31.584;74.450;2023-03-03T15:20:40;136.48;;;52.67;;
31238;SDS011;17871;31.584;74.450;2023-03-03T15:31:46;116.97;;;45.58;;
31238;SDS011;17871;31.584;74.450;2023-03-03T15:37:08;149.55;;;53.95;;
31238;SDS011;17871;31.584;74.450;2023-03-03T15:45:24;143.13;;;54.60;;
31238;SDS011;17871;31.584;74.450;2023-03-03T15:48:00;127.47;;;55.42;;
31238;SDS011;17871;31.584;74.450;2023-03-03T15:59:08;203.23;;;81.07;;
31238;SDS011;17871;31.584;74.450;2023-03-03T16:04:33;194.45;;;79.15;;
31238;SDS011;17871;31.584;74.450;2023-03-03T16:07:13;203.45;;;83.15;;
31238;SDS011;17871;31.584;74.450;2023-03-03T16:18:53;170.77;;;66.35;;
31238;SDS011;17871;31.584;74.450;2023-03-03T16:30:38;149.02;;;64.10;;
31238;SDS011;17871;31.584;74.450;2023-03-03T16:33:23;165.48;;;65.70;;
31238;SDS011;17871;31.584;74.450;2023-03-03T16:44:33;174.00;;;77.88;;
31238;SDS011;17871;31.584;74.450;2023-03-03T16:53:20;183.60;;;75.40;;
31238;SDS011;17871;31.584;74.450;2023-03-03T17:04:46;189.27;;;83.97;;
31238;SDS011;17871;31.584;74.450;2023-03-03T17:10:25;178.52;;;76.20;;
31238;SDS011;17871;31.584;74.450;2023-03-03T17:20:50;188.40;;;74.65;;
31238;SDS011;17871;31.584;74.450;2023-03-03T17:23:33;191.93;;;75.97;;
31238;SDS011;17871;31.584;74.450;2023-03-03T17:26:16;188.48;;;78.38;;
31238;SDS011;17871;31.584;74.450;2023-03-03T17:43:38;181.88;;;78.53;;
31238;SDS011;17871;31.584;74.450;2023-03-03T17:46:13;180.43;;;76.55;;
31238;SDS011;17871;31.584;74.450;2023-03-03T17:48:56;167.27;;;73.07;;
31238;SDS011;17871;31.584;74.450;2023-03-03T17:51:44;161.25;;;69.10;;
31238;SDS011;17871;31.584;74.450;2023-03-03T18:14:39;178.70;;;54.05;;
31238;SDS011;17871;31.584;74.450;2023-03-03T18:17:33;129.65;;;47.72;;
31238;SDS011;17871;31.584;74.450;2023-03-03T18:20:26;113.45;;;42.83;;
31238;SDS011;17871;31.584;74.450;2023-03-03T18:26:02;94.65;;;36.90;;
31238;SDS011;17871;31.584;74.450;2023-03-03T18:28:52;93.03;;;37.10;;
31238;SDS011;17871;31.584;74.450;2023-03-03T18:31:59;87.35;;;40.17;;
31238;SDS011;17871;31.584;74.450;2023-03-03T18:34:40;98.10;;;39.93;;
31238;SDS011;17871;31.584;74.450;2023-03-03T18:50:32;121.57;;;54.17;;
31238;SDS011;17871;31.584;74.450;2023-03-03T18:53:13;107.07;;;46.35;;
31238;SDS011;17871;31.584;74.450;2023-03-03T18:55:47;115.45;;;48.78;;
31238;SDS011;17871;31.584;74.450;2023-03-03T19:03:34;119.10;;;48.40;;
31238;SDS011;17871;31.584;74.450;2023-03-03T19:09:04;94.50;;;44.47;;
31238;SDS011;17871;31.584;74.450;2023-03-03T19:11:50;99.15;;;40.63;;
31238;SDS011;17871;31.584;74.450;2023-03-03T19:16:55;89.20;;;39.08;;
31238;SDS011;17871;31.584;74.450;2023-03-03T19:19:32;86.50;;;40.83;;
31238;SDS011;17871;31.584;74.450;2023-03-03T19:30:51;155.95;;;66.38;;
31238;SDS011;17871;31.584;74.450;2023-03-03T19:42:21;120.90;;;56.45;;
31238;SDS011;17871;31.584;74.450;2023-03-03T19:47:43;113.80;;;49.97;;
31238;SDS011;17871;31.584;74.450;2023-03-03T19:53:30;93.15;;;42.05;;
31238;SDS011;17871;31.584;74.450;2023-03-03T19:56:14;87.20;;;42.90;;
31238;SDS011;17871;31.584;74.450;2023-03-03T20:01:44;88.45;;;42.25;;
31238;SDS011;17871;31.584;74.450;2023-03-03T20:04:24;88.03;;;43.50;;
31238;SDS011;17871;31.584;74.450;2023-03-03T20:21:19;76.30;;;36.88;;
31238;SDS011;17871;31.584;74.450;2023-03-03T20:32:57;71.95;;;35.92;;
31238;SDS011;17871;31.584;74.450;2023-03-03T20:36:02;70.78;;;34.58;;
31238;SDS011;17871;31.584;74.450;2023-03-03T20:38:39;72.75;;;36.17;;
31238;SDS011;17871;31.584;74.450;2023-03-03T20:53:42;97.65;;;44.25;;
31238;SDS011;17871;31.584;74.450;2023-03-03T21:04:21;120.95;;;55.00;;
31238;SDS011;17871;31.584;74.450;2023-03-03T21:06:56;120.57;;;55.15;;
31238;SDS011;17871;31.584;74.450;2023-03-03T21:09:29;126.47;;;55.97;;
31238;SDS011;17871;31.584;74.450;2023-03-03T21:12:09;126.20;;;56.97;;
31238;SDS011;17871;31.584;74.450;2023-03-03T21:15:03;137.52;;;58.97;;
31238;SDS011;17871;31.584;74.450;2023-03-03T21:17:48;119.47;;;55.28;;
31238;SDS011;17871;31.584;74.450;2023-03-03T21:20:18;122.18;;;54.38;;
31238;SDS011;17871;31.584;74.450;2023-03-03T21:22:55;115.95;;;53.92;;
31238;SDS011;17871;31.584;74.450;2023-03-03T21:25:45;119.78;;;54.13;;
31238;SDS011;17871;31.584;74.450;2023-03-03T21:28:22;129.18;;;55.97;;
31238;SDS011;17871;31.584;74.450;2023-03-03T21:31:01;148.45;;;58.58;;
31238;SDS011;17871;31.584;74.450;2023-03-03T21:33:40;127.67;;;54.40;;
31238;SDS011;17871;31.584;74.450;2023-03-03T21:39:24;112.03;;;49.03;;
31238;SDS011;17871;31.584;74.450;2023-03-03T21:42:00;122.05;;;53.45;;
31238;SDS011;17871;31.584;74.450;2023-03-03T21:47:14;118.78;;;50.65;;
31238;SDS011;17871;31.584;74.450;2023-03-03T21:49:46;124.25;;;50.70;;
31238;SDS011;17871;31.584;74.450;2023-03-03T21:52:18;105.47;;;48.17;;
31238;SDS011;17871;31.584;74.450;2023-03-03T21:54:49;112.38;;;47.53;;
31238;SDS011;17871;31.584;74.450;2023-03-03T21:57:19;109.35;;;46.47;;
31238;SDS011;17871;31.584;74.450;2023-03-03T21:59:48;100.63;;;46.20;;
31238;SDS011;17871;31.584;74.450;2023-03-03T22:02:17;99.28;;;43.08;;
31238;SDS011;17871;31.584;74.450;2023-03-03T22:04:46;111.88;;;51.10;;
31238;SDS011;17871;31.584;74.450;2023-03-03T22:07:15;112.18;;;52.22;;
31238;SDS011;17871;31.584;74.450;2023-03-03T22:09:44;130.00;;;55.13;;
31238;SDS011;17871;31.584;74.450;2023-03-03T22:12:13;121.53;;;55.08;;
31238;SDS011;17871;31.584;74.450;2023-03-03T22:14:41;117.22;;;56.95;;
31238;SDS011;17871;31.584;74.450;2023-03-03T22:17:10;136.60;;;56.92;;
31238;SDS011;17871;31.584;74.450;2023-03-03T22:19:39;151.32;;;66.05;;
31238;SDS011;17871;31.584;74.450;2023-03-03T22:22:08;156.23;;;66.85;;
31238;SDS011;17871;31.584;74.450;2023-03-03T22:24:37;143.18;;;67.88;;